sensor_id;sensor_type;location;lat;lon;timestamp;pressure;altitude;pressure_sealevel;temperature;humidity
7990;BME280;4040;42.848;23.034;2023-07-13T00:09:49;95154.03;;;19.65;100.00
7990;BME280;4040;42.848;23.034;2023-07-13T00:15:39;95157.16;;;19.45;100.00
7990;BME280;4040;42.848;23.034;2023-07-13T00:21:28;95155.13;;;19.28;100.00
7990;BME280;4040;42.848;23.034;2023-07-13T00:27:17;95141.91;;;19.26;100.00
7990;BME280;4040;42.848;23.034;2023-07-13T00:33:08;95149.34;;;19.26;100.00
7990;BME280;4040;42.848;23.034;2023-07-13T00:38:56;95152.25;;;19.10;100.00
7990;BME280;4040;42.848;23.034;2023-07-13T00:45:07;95145.66;;;19.20;100.00
7990;BME280;4040;42.848;23.034;2023-07-13T00:50:59;95140.13;;;19.11;100.00
7990;BME280;4040;42.848;23.034;2023-07-13T00:56:50;95148.25;;;18.93;100.00
7990;BME280;4040;42.848;23.034;2023-07-13T01:02:42;95152.06;;;18.74;100.00
7990;BME280;4040;42.848;23.034;2023-07-13T01:12:56;95144.13;;;18.67;100.00
7990;BME280;4040;42.848;23.034;2023-07-13T01:18:46;95139.91;;;18.53;100.00
7990;BME280;4040;42.848;23.034;2023-07-13T01:24:38;95133.44;;;18.60;100.00
7990;BME280;4040;42.848;23.034;2023-07-13T01:30:26;95138.84;;;18.51;100.00
7990;BME280;4040;42.848;23.034;2023-07-13T01:36:15;95131.06;;;18.28;100.00
7990;BME280;4040;42.848;23.034;2023-07-13T01:42:06;95136.00;;;18.20;100.00
7990;BME280;4040;42.848;23.034;2023-07-13T01:47:54;95138.91;;;18.26;100.00
7990;BME280;4040;42.848;23.034;2023-07-13T01:53:43;95136.31;;;18.35;100.00
7990;BME280;4040;42.848;23.034;2023-07-13T01:59:34;95147.28;;;18.10;100.00
7990;BME280;4040;42.848;23.034;2023-07-13T02:05:23;95149.44;;;18.15;100.00
7990;BME280;4040;42.848;23.034;2023-07-13T02:15:38;95141.06;;;18.09;100.00
7990;BME280;4040;42.848;23.034;2023-07-13T02:21:28;95139.66;;;18.05;100.00
7990;BME280;4040;42.848;23.034;2023-07-13T02:23:55;95139.88;;;17.98;100.00
7990;BME280;4040;42.848;23.034;2023-07-13T02:29:44;95140.44;;;17.93;100.00
7990;BME280;4040;42.848;23.034;2023-07-13T02:35:34;95143.41;;;17.86;100.00
7990;BME280;4040;42.848;23.034;2023-07-13T02:41:23;95146.03;;;17.77;100.00
7990;BME280;4040;42.848;23.034;2023-07-13T02:47:12;95139.94;;;17.73;100.00
7990;BME280;4040;42.848;23.034;2023-07-13T02:53:02;95157.38;;;17.76;100.00
7990;BME280;4040;42.848;23.034;2023-07-13T02:58:51;95160.09;;;17.76;100.00
7990;BME280;4040;42.848;23.034;2023-07-13T03:04:40;95162.06;;;17.75;100.00
7990;BME280;4040;42.848;23.034;2023-07-13T03:10:30;95161.28;;;17.87;100.00
7990;BME280;4040;42.848;23.034;2023-07-13T03:16:19;95176.13;;;17.74;100.00
7990;BME280;4040;42.848;23.034;2023-07-13T03:22:08;95166.50;;;17.82;100.00
7990;BME280;4040;42.848;23.034;2023-07-13T03:27:58;95158.44;;;17.78;100.00
7990;BME280;4040;42.848;23.034;2023-07-13T03:33:47;95164.66;;;17.91;100.00
7990;BME280;4040;42.848;23.034;2023-07-13T03:39:36;95174.25;;;17.96;100.00
7990;BME280;4040;42.848;23.034;2023-07-13T03:45:26;95169.09;;;18.10;100.00
7990;BME280;4040;42.848;23.034;2023-07-13T03:51:16;95172.66;;;18.19;100.00
7990;BME280;4040;42.848;23.034;2023-07-13T03:57:05;95167.13;;;18.44;100.00
7990;BME280;4040;42.848;23.034;2023-07-13T04:02:56;95168.09;;;18.72;100.00
7990;BME280;4040;42.848;23.034;2023-07-13T04:08:44;95175.91;;;19.04;100.00
7990;BME280;4040;42.848;23.034;2023-07-13T04:18:57;95178.53;;;19.38;100.00
7990;BME280;4040;42.848;23.034;2023-07-13T04:24:46;95187.09;;;19.49;100.00
7990;BME280;4040;42.848;23.034;2023-07-13T04:30:35;95177.44;;;19.75;100.00
7990;BME280;4040;42.848;23.034;2023-07-13T04:36:26;95191.63;;;20.40;100.00
7990;BME280;4040;42.848;23.034;2023-07-13T04:42:15;95198.41;;;21.34;100.00
7990;BME280;4040;42.848;23.034;2023-07-13T04:48:04;95192.47;;;23.32;100.00
7990;BME280;4040;42.848;23.034;2023-07-13T04:53:54;95185.97;;;23.93;100.00
7990;BME280;4040;42.848;23.034;2023-07-13T04:59:43;95184.00;;;24.68;100.00
7990;BME280;4040;42.848;23.034;2023-07-13T05:05:32;95179.59;;;26.50;100.00
7990;BME280;4040;42.848;23.034;2023-07-13T05:11:22;95182.16;;;28.39;93.67
7990;BME280;4040;42.848;23.034;2023-07-13T05:21:32;95176.22;;;29.72;78.96
7990;BME280;4040;42.848;23.034;2023-07-13T05:27:23;95180.22;;;30.54;74.05
7990;BME280;4040;42.848;23.034;2023-07-13T05:33:11;95168.91;;;29.69;68.68
7990;BME280;4040;42.848;23.034;2023-07-13T05:39:00;95172.16;;;30.03;68.72
7990;BME280;4040;42.848;23.034;2023-07-13T05:44:50;95180.28;;;31.71;64.01
7990;BME280;4040;42.848;23.034;2023-07-13T05:50:39;95183.63;;;32.97;58.46
7990;BME280;4040;42.848;23.034;2023-07-13T05:56:28;95187.44;;;33.66;53.24
7990;BME280;4040;42.848;23.034;2023-07-13T05:58:56;95197.72;;;34.25;53.06
7990;BME280;4040;42.848;23.034;2023-07-13T06:04:46;95200.06;;;34.90;52.79
7990;BME280;4040;42.848;23.034;2023-07-13T06:10:35;95191.97;;;34.51;54.46
7990;BME280;4040;42.848;23.034;2023-07-13T06:16:24;95184.09;;;34.50;54.37
7990;BME280;4040;42.848;23.034;2023-07-13T06:22:14;95191.25;;;34.58;52.83
7990;BME280;4040;42.848;23.034;2023-07-13T06:28:03;95197.56;;;35.50;50.03
7990;BME280;4040;42.848;23.034;2023-07-13T06:33:52;95184.06;;;36.81;49.29
7990;BME280;4040;42.848;23.034;2023-07-13T06:39:42;95189.53;;;37.41;46.50
7990;BME280;4040;42.848;23.034;2023-07-13T06:45:34;95174.78;;;39.12;41.64
7990;BME280;4040;42.848;23.034;2023-07-13T06:51:23;95178.69;;;40.39;38.26
7990;BME280;4040;42.848;23.034;2023-07-13T06:57:14;95173.19;;;40.41;39.34
7990;BME280;4040;42.848;23.034;2023-07-13T07:03:03;95175.41;;;40.33;39.57
7990;BME280;4040;42.848;23.034;2023-07-13T07:08:52;95173.09;;;41.23;38.44
7990;BME280;4040;42.848;23.034;2023-07-13T07:14:42;95159.53;;;41.59;37.27
7990;BME280;4040;42.848;23.034;2023-07-13T07:24:53;95163.25;;;41.14;38.74
7990;BME280;4040;42.848;23.034;2023-07-13T07:30:44;95146.56;;;41.75;37.96
7990;BME280;4040;42.848;23.034;2023-07-13T07:36:32;95134.13;;;43.32;36.86
7990;BME280;4040;42.848;23.034;2023-07-13T07:42:21;95134.59;;;44.28;35.67
7990;BME280;4040;42.848;23.034;2023-07-13T07:48:12;95133.84;;;44.28;35.31
7990;BME280;4040;42.848;23.034;2023-07-13T07:54:00;95118.00;;;44.02;29.38
7990;BME280;4040;42.848;23.034;2023-07-13T07:59:49;95128.34;;;46.12;27.68
7990;BME280;4040;42.848;23.034;2023-07-13T08:05:39;95134.25;;;43.67;30.63
7990;BME280;4040;42.848;23.034;2023-07-13T08:11:28;95121.91;;;46.11;28.03
7990;BME280;4040;42.848;23.034;2023-07-13T08:17:17;95104.00;;;46.76;25.61
7990;BME280;4040;42.848;23.034;2023-07-13T08:27:28;95102.94;;;46.29;24.40
7990;BME280;4040;42.848;23.034;2023-07-13T08:33:17;95112.06;;;44.89;26.64
7990;BME280;4040;42.848;23.034;2023-07-13T08:39:06;95111.38;;;42.79;28.08
7990;BME280;4040;42.848;23.034;2023-07-13T08:45:03;95123.69;;;44.02;27.06
7990;BME280;4040;42.848;23.034;2023-07-13T08:50:58;95130.09;;;45.67;27.13
7990;BME280;4040;42.848;23.034;2023-07-13T08:56:59;95138.03;;;44.73;25.87
7990;BME280;4040;42.848;23.034;2023-07-13T09:02:56;95137.41;;;42.66;31.49
7990;BME280;4040;42.848;23.034;2023-07-13T09:08:53;95127.59;;;45.11;27.58
7990;BME280;4040;42.848;23.034;2023-07-13T09:14:47;95111.84;;;44.17;27.44
7990;BME280;4040;42.848;23.034;2023-07-13T09:20:42;95135.84;;;44.60;27.47
7990;BME280;4040;42.848;23.034;2023-07-13T09:23:14;95129.41;;;44.36;28.36
7990;BME280;4040;42.848;23.034;2023-07-13T09:29:18;95122.75;;;44.55;25.36
7990;BME280;4040;42.848;23.034;2023-07-13T09:35:10;94932.78;;;42.88;27.84
7990;BME280;4040;42.848;23.034;2023-07-13T09:41:10;95109.84;;;39.89;30.85
7990;BME280;4040;42.848;23.034;2023-07-13T09:47:03;95103.00;;;41.02;31.57
7990;BME280;4040;42.848;23.034;2023-07-13T09:49:39;95101.66;;;41.03;30.87
7990;BME280;4040;42.848;23.034;2023-07-13T09:55:30;95089.38;;;43.98;30.22
7990;BME280;4040;42.848;23.034;2023-07-13T10:01:34;95091.13;;;43.15;27.50
7990;BME280;4040;42.848;23.034;2023-07-13T10:07:23;95087.97;;;43.32;29.84
7990;BME280;4040;42.848;23.034;2023-07-13T10:13:26;95075.53;;;44.61;27.30
7990;BME280;4040;42.848;23.034;2023-07-13T10:19:19;95069.63;;;44.46;30.44
7990;BME280;4040;42.848;23.034;2023-07-13T10:29:23;95062.41;;;44.68;26.57
7990;BME280;4040;42.848;23.034;2023-07-13T10:35:18;95048.47;;;43.24;27.69
7990;BME280;4040;42.848;23.034;2023-07-13T10:41:11;95042.28;;;40.46;30.64
7990;BME280;4040;42.848;23.034;2023-07-13T10:47:06;95032.59;;;39.75;31.23
7990;BME280;4040;42.848;23.034;2023-07-13T10:53:02;95029.09;;;39.22;32.19
7990;BME280;4040;42.848;23.034;2023-07-13T10:59:11;95018.47;;;37.70;34.19
7990;BME280;4040;42.848;23.034;2023-07-13T11:05:22;95019.63;;;36.56;35.63
7990;BME280;4040;42.848;23.034;2023-07-13T11:11:35;95010.03;;;35.89;38.38
7990;BME280;4040;42.848;23.034;2023-07-13T11:17:37;95014.31;;;36.20;38.19
7990;BME280;4040;42.848;23.034;2023-07-13T11:23:30;95007.94;;;36.20;38.67
7990;BME280;4040;42.848;23.034;2023-07-13T11:29:37;94999.09;;;36.93;37.94
7990;BME280;4040;42.848;23.034;2023-07-13T11:35:28;94988.75;;;37.03;38.88
7990;BME280;4040;42.848;23.034;2023-07-13T11:41:19;94989.94;;;37.24;36.45
7990;BME280;4040;42.848;23.034;2023-07-13T11:47:14;94984.88;;;36.91;38.41
7990;BME280;4040;42.848;23.034;2023-07-13T11:53:09;94969.91;;;36.88;40.25
7990;BME280;4040;42.848;23.034;2023-07-13T11:59:04;94961.00;;;36.28;39.27
7990;BME280;4040;42.848;23.034;2023-07-13T12:04:56;94971.69;;;36.14;39.48
7990;BME280;4040;42.848;23.034;2023-07-13T12:10:44;94956.34;;;36.15;39.81
7990;BME280;4040;42.848;23.034;2023-07-13T12:16:34;94942.84;;;36.29;39.46
7990;BME280;4040;42.848;23.034;2023-07-13T12:22:25;94943.28;;;35.95;42.50
7990;BME280;4040;42.848;23.034;2023-07-13T12:32:36;94922.50;;;36.21;41.28
7990;BME280;4040;42.848;23.034;2023-07-13T12:38:26;94923.78;;;36.27;41.38
7990;BME280;4040;42.848;23.034;2023-07-13T12:44:18;94901.28;;;36.42;44.17
7990;BME280;4040;42.848;23.034;2023-07-13T12:50:15;94902.44;;;36.32;41.12
7990;BME280;4040;42.848;23.034;2023-07-13T12:56:05;94903.19;;;36.32;42.58
7990;BME280;4040;42.848;23.034;2023-07-13T13:01:54;94898.69;;;36.37;42.94
7990;BME280;4040;42.848;23.034;2023-07-13T13:07:42;94890.91;;;36.20;39.29
7990;BME280;4040;42.848;23.034;2023-07-13T13:13:35;94879.00;;;35.90;42.68
7990;BME280;4040;42.848;23.034;2023-07-13T13:19:26;94877.66;;;36.06;42.24
7990;BME280;4040;42.848;23.034;2023-07-13T13:25:15;94871.47;;;36.15;42.76
7990;BME280;4040;42.848;23.034;2023-07-13T13:35:28;94863.25;;;36.17;42.11
7990;BME280;4040;42.848;23.034;2023-07-13T13:41:17;94869.56;;;36.25;42.25
7990;BME280;4040;42.848;23.034;2023-07-13T13:47:21;94866.59;;;36.15;43.79
7990;BME280;4040;42.848;23.034;2023-07-13T13:53:14;94860.66;;;36.04;40.22
7990;BME280;4040;42.848;23.034;2023-07-13T13:59:03;94864.03;;;36.02;43.98
7990;BME280;4040;42.848;23.034;2023-07-13T14:04:54;94861.19;;;36.10;42.21
7990;BME280;4040;42.848;23.034;2023-07-13T14:10:49;94840.56;;;35.83;40.60
7990;BME280;4040;42.848;23.034;2023-07-13T14:16:39;94843.94;;;35.66;40.35
7990;BME280;4040;42.848;23.034;2023-07-13T14:22:28;94837.56;;;35.81;43.46
7990;BME280;4040;42.848;23.034;2023-07-13T14:28:22;94832.75;;;35.59;40.65
7990;BME280;4040;42.848;23.034;2023-07-13T14:38:33;94837.63;;;35.66;43.52
7990;BME280;4040;42.848;23.034;2023-07-13T14:44:26;94835.34;;;35.72;41.19
7990;BME280;4040;42.848;23.034;2023-07-13T14:50:17;94827.00;;;35.42;41.43
7990;BME280;4040;42.848;23.034;2023-07-13T14:56:10;94834.66;;;35.34;39.31
7990;BME280;4040;42.848;23.034;2023-07-13T15:02:00;94842.50;;;35.43;38.53
7990;BME280;4040;42.848;23.034;2023-07-13T15:07:49;94838.03;;;35.10;36.79
7990;BME280;4040;42.848;23.034;2023-07-13T15:13:39;94837.66;;;34.91;37.48
7990;BME280;4040;42.848;23.034;2023-07-13T15:19:29;94846.97;;;34.94;38.17
7990;BME280;4040;42.848;23.034;2023-07-13T15:25:23;94835.38;;;34.67;38.02
7990;BME280;4040;42.848;23.034;2023-07-13T15:31:19;94834.63;;;34.59;38.44
7990;BME280;4040;42.848;23.034;2023-07-13T15:41:33;94843.94;;;34.39;40.70
7990;BME280;4040;42.848;23.034;2023-07-13T15:47:22;94836.78;;;34.23;42.06
7990;BME280;4040;42.848;23.034;2023-07-13T15:53:11;94849.41;;;34.09;38.67
7990;BME280;4040;42.848;23.034;2023-07-13T15:59:02;94833.63;;;33.76;38.15
7990;BME280;4040;42.848;23.034;2023-07-13T16:04:50;94838.09;;;33.79;38.17
7990;BME280;4040;42.848;23.034;2023-07-13T16:10:40;94836.44;;;33.76;39.59
7990;BME280;4040;42.848;23.034;2023-07-13T16:16:31;94833.81;;;33.78;41.05
7990;BME280;4040;42.848;23.034;2023-07-13T16:22:20;94838.72;;;33.57;41.14
7990;BME280;4040;42.848;23.034;2023-07-13T16:28:10;94833.63;;;33.48;41.11
7990;BME280;4040;42.848;23.034;2023-07-13T16:34:01;94826.97;;;33.23;42.86
7990;BME280;4040;42.848;23.034;2023-07-13T16:44:14;94846.47;;;32.95;43.28
7990;BME280;4040;42.848;23.034;2023-07-13T16:50:14;94850.94;;;32.57;43.03
7990;BME280;4040;42.848;23.034;2023-07-13T16:56:12;94851.91;;;32.39;43.73
7990;BME280;4040;42.848;23.034;2023-07-13T17:02:28;94853.88;;;32.19;46.39
7990;BME280;4040;42.848;23.034;2023-07-13T17:08:27;94851.03;;;31.98;49.12
7990;BME280;4040;42.848;23.034;2023-07-13T17:14:16;94833.41;;;31.57;50.79
7990;BME280;4040;42.848;23.034;2023-07-13T17:20:15;94858.69;;;31.33;54.72
7990;BME280;4040;42.848;23.034;2023-07-13T17:26:05;94855.91;;;30.75;58.28
7990;BME280;4040;42.848;23.034;2023-07-13T17:31:54;94852.22;;;30.36;65.56
7990;BME280;4040;42.848;23.034;2023-07-13T17:37:43;94864.06;;;30.05;69.19
7990;BME280;4040;42.848;23.034;2023-07-13T17:43:33;94849.38;;;29.86;75.27
7990;BME280;4040;42.848;23.034;2023-07-13T17:49:23;94859.94;;;29.27;88.93
7990;BME280;4040;42.848;23.034;2023-07-13T17:55:18;94854.38;;;28.79;97.58
7990;BME280;4040;42.848;23.034;2023-07-13T18:01:11;94865.22;;;28.47;100.00
7990;BME280;4040;42.848;23.034;2023-07-13T18:07:00;94868.75;;;28.07;100.00
7990;BME280;4040;42.848;23.034;2023-07-13T18:12:55;94872.97;;;27.73;100.00
7990;BME280;4040;42.848;23.034;2023-07-13T18:18:46;94880.81;;;27.53;100.00
7990;BME280;4040;42.848;23.034;2023-07-13T18:24:35;94887.19;;;27.31;100.00
7990;BME280;4040;42.848;23.034;2023-07-13T18:30:24;94891.72;;;27.29;100.00
7990;BME280;4040;42.848;23.034;2023-07-13T18:36:15;94890.44;;;27.30;100.00
7990;BME280;4040;42.848;23.034;2023-07-13T18:46:19;94912.34;;;27.11;100.00
7990;BME280;4040;42.848;23.034;2023-07-13T18:52:17;94929.97;;;26.97;100.00
7990;BME280;4040;42.848;23.034;2023-07-13T18:58:07;94938.28;;;26.70;100.00
7990;BME280;4040;42.848;23.034;2023-07-13T19:03:56;94919.88;;;26.39;100.00
7990;BME280;4040;42.848;23.034;2023-07-13T19:09:46;94949.47;;;26.23;100.00
7990;BME280;4040;42.848;23.034;2023-07-13T19:15:35;94947.91;;;26.00;100.00
7990;BME280;4040;42.848;23.034;2023-07-13T19:21:33;94957.06;;;25.69;100.00
7990;BME280;4040;42.848;23.034;2023-07-13T19:27:26;94963.22;;;25.48;100.00
7990;BME280;4040;42.848;23.034;2023-07-13T19:33:15;94963.91;;;25.01;100.00
7990;BME280;4040;42.848;23.034;2023-07-13T19:39:21;94965.69;;;24.73;100.00
7990;BME280;4040;42.848;23.034;2023-07-13T19:49:36;94964.41;;;24.68;100.00
7990;BME280;4040;42.848;23.034;2023-07-13T19:55:26;94959.28;;;24.56;100.00
7990;BME280;4040;42.848;23.034;2023-07-13T20:01:16;94954.06;;;24.58;100.00
7990;BME280;4040;42.848;23.034;2023-07-13T20:07:13;94955.19;;;24.46;100.00
7990;BME280;4040;42.848;23.034;2023-07-13T20:13:11;94959.22;;;24.25;100.00
7990;BME280;4040;42.848;23.034;2023-07-13T20:19:01;94955.81;;;24.10;100.00
7990;BME280;4040;42.848;23.034;2023-07-13T20:24:51;94954.44;;;24.00;100.00
7990;BME280;4040;42.848;23.034;2023-07-13T20:30:42;94958.97;;;23.83;100.00
7990;BME280;4040;42.848;23.034;2023-07-13T20:36:33;94952.72;;;23.62;100.00
7990;BME280;4040;42.848;23.034;2023-07-13T20:42:23;94950.44;;;23.61;100.00
7990;BME280;4040;42.848;23.034;2023-07-13T20:52:34;94968.75;;;23.44;100.00
7990;BME280;4040;42.848;23.034;2023-07-13T20:58:25;94958.53;;;23.30;100.00
7990;BME280;4040;42.848;23.034;2023-07-13T21:04:14;94965.81;;;23.13;100.00
7990;BME280;4040;42.848;23.034;2023-07-13T21:10:08;94972.06;;;22.99;100.00
7990;BME280;4040;42.848;23.034;2023-07-13T21:16:10;94987.44;;;22.91;100.00
7990;BME280;4040;42.848;23.034;2023-07-13T21:22:01;94975.88;;;22.87;100.00
7990;BME280;4040;42.848;23.034;2023-07-13T21:27:51;94966.88;;;22.87;100.00
7990;BME280;4040;42.848;23.034;2023-07-13T21:33:42;94973.13;;;22.73;100.00
7990;BME280;4040;42.848;23.034;2023-07-13T21:39:31;94971.81;;;22.68;100.00
7990;BME280;4040;42.848;23.034;2023-07-13T21:45:22;94967.47;;;22.47;100.00
7990;BME280;4040;42.848;23.034;2023-07-13T21:55:34;94948.81;;;22.22;100.00
7990;BME280;4040;42.848;23.034;2023-07-13T22:08:48;94951.13;;;21.86;100.00
7990;BME280;4040;42.848;23.034;2023-07-13T22:14:37;94943.16;;;21.73;100.00
7990;BME280;4040;42.848;23.034;2023-07-13T22:20:27;94934.34;;;21.46;100.00
7990;BME280;4040;42.848;23.034;2023-07-13T22:26:20;94941.78;;;21.54;100.00
7990;BME280;4040;42.848;23.034;2023-07-13T22:32:09;94938.09;;;21.57;100.00
7990;BME280;4040;42.848;23.034;2023-07-13T22:37:59;94936.69;;;21.38;100.00
7990;BME280;4040;42.848;23.034;2023-07-13T22:43:49;94930.22;;;21.50;100.00
7990;BME280;4040;42.848;23.034;2023-07-13T22:49:38;94908.00;;;21.48;100.00
7990;BME280;4040;42.848;23.034;2023-07-13T22:55:26;94912.31;;;21.40;100.00
7990;BME280;4040;42.848;23.034;2023-07-13T23:01:22;94912.00;;;21.24;100.00
7990;BME280;4040;42.848;23.034;2023-07-13T23:07:11;94885.13;;;21.13;100.00
7990;BME280;4040;42.848;23.034;2023-07-13T23:13:00;94876.09;;;20.98;100.00
7990;BME280;4040;42.848;23.034;2023-07-13T23:18:51;94878.22;;;21.03;100.00
7990;BME280;4040;42.848;23.034;2023-07-13T23:24:40;94885.25;;;20.95;100.00
7990;BME280;4040;42.848;23.034;2023-07-13T23:30:30;94877.47;;;20.71;100.00
7990;BME280;4040;42.848;23.034;2023-07-13T23:36:21;94873.25;;;20.61;100.00
7990;BME280;4040;42.848;23.034;2023-07-13T23:42:10;94872.88;;;20.44;100.00
7990;BME280;4040;42.848;23.034;2023-07-13T23:44:37;94875.63;;;20.44;100.00
7990;BME280;4040;42.848;23.034;2023-07-13T23:50:28;94870.88;;;20.45;100.00
7990;BME280;4040;42.848;23.034;2023-07-13T23:56:21;94854.53;;;20.27;100.00
